createdAt,value
2023-05-01T00:00:24.579Z,5.4769
2023-05-01T00:01:25.678Z,5.9692
2023-05-01T00:02:26.797Z,5.9385
2023-05-01T00:03:27.878Z,6.2385
2023-05-01T00:04:28.763Z,6.1077
2023-05-01T00:05:29.785Z,5.4154
2023-05-01T00:06:30.926Z,5.6615
2023-05-01T00:07:31.929Z,7.2000
2023-05-01T00:08:32.909Z,5.7692
2023-05-01T00:09:33.945Z,6.5462
2023-05-01T00:10:34.957Z,5.2462
2023-05-01T00:11:36.063Z,5.9769
2023-05-01T00:12:37.155Z,5.9154
2023-05-01T00:13:38.081Z,5.3923
2023-05-01T00:14:39.108Z,5.8692
2023-05-01T00:15:40.159Z,7.3538
2023-05-01T00:16:41.258Z,6.1846
2023-05-01T00:17:42.320Z,5.4923
2023-05-01T00:18:43.259Z,6.3923
2023-05-01T00:19:44.310Z,5.5692
2023-05-01T00:20:45.322Z,5.4154
2023-05-01T00:21:46.459Z,6.1154
2023-05-01T00:22:47.423Z,5.5154
2023-05-01T00:23:48.471Z,5.4846
2023-05-01T00:24:49.482Z,6.3462
2023-05-01T00:25:50.558Z,5.3846
2023-05-01T00:26:51.597Z,5.4538
2023-05-01T00:27:52.651Z,5.7154
2023-05-01T00:28:53.936Z,5.7923
2023-05-01T00:29:54.943Z,5.7154
2023-05-01T00:30:55.732Z,5.7231
2023-05-01T00:31:56.838Z,5.5077
2023-05-01T00:32:57.860Z,6.3923
2023-05-01T00:33:58.913Z,7.4462
2023-05-01T00:34:59.880Z,6.5769
2023-05-01T00:36:00.961Z,7.2769
2023-05-01T00:37:01.957Z,6.1923
2023-05-01T00:38:03.088Z,6.1615
2023-05-01T00:39:04.061Z,6.5385
2023-05-01T00:40:05.100Z,7.0923
2023-05-01T00:41:06.138Z,7.0846
2023-05-01T00:42:07.207Z,7.5538
2023-05-01T00:43:08.237Z,6.8923
2023-05-01T00:44:09.287Z,6.7923
2023-05-01T00:45:10.260Z,6.5692
2023-05-01T00:46:11.376Z,6.7846
2023-05-01T00:47:12.339Z,6.8308
2023-05-01T00:48:13.435Z,6.9231
2023-05-01T00:49:14.437Z,7.4769
2023-05-01T00:50:15.489Z,6.9615
2023-05-01T00:51:16.506Z,6.3615
2023-05-01T00:52:17.565Z,6.8615
2023-05-01T00:53:18.577Z,7.7385
2023-05-01T00:54:19.656Z,7.5846
2023-05-01T00:55:20.645Z,8.1769
2023-05-01T00:56:21.656Z,8.2615
2023-05-01T00:57:22.672Z,8.0077
2023-05-01T00:58:23.750Z,8.0154
2023-05-01T00:59:24.793Z,8.2462
2023-05-01T01:00:25.849Z,8.4462
2023-05-01T01:01:26.973Z,8.4538
2023-05-01T01:02:27.922Z,8.6385
2023-05-01T01:03:29.006Z,9.5462
2023-05-01T01:04:30.074Z,9.4538
2023-05-01T01:05:31.022Z,8.9231
2023-05-01T01:06:32.058Z,9.2231
2023-05-01T01:07:33.094Z,10.4846
2023-05-01T01:08:34.161Z,11.2846
2023-05-01T01:09:35.334Z,12.1462
2023-05-01T01:10:36.161Z,11.3769
2023-05-01T01:11:37.221Z,13.0692
2023-05-01T01:12:38.252Z,11.9462
2023-05-01T01:13:39.301Z,11.3692
2023-05-01T01:14:40.301Z,11.6154
2023-05-01T01:15:41.320Z,13.4846
2023-05-01T01:16:42.354Z,14.6615
2023-05-01T01:17:43.417Z,12.5615
2023-05-01T01:18:44.438Z,12.0769
2023-05-01T01:19:45.490Z,13.0692
2023-05-01T01:20:46.507Z,12.5462
2023-05-01T01:21:47.586Z,13.1308
2023-05-01T01:22:48.514Z,12.3769
2023-05-01T01:23:49.584Z,12.3846
2023-05-01T01:24:50.593Z,12.7077
2023-05-01T01:25:51.652Z,13.5462
2023-05-01T01:26:52.645Z,11.1231
2023-05-01T01:27:53.692Z,11.8769
2023-05-01T01:28:54.765Z,11.8692
2023-05-01T01:29:56.200Z,12.7000
2023-05-01T01:30:56.908Z,12.4231
2023-05-01T01:31:57.825Z,13.3846
2023-05-01T01:32:58.885Z,13.2385
2023-05-01T01:33:59.945Z,12.4923
2023-05-01T01:35:00.934Z,13.3923
2023-05-01T01:36:01.970Z,15.1308
2023-05-01T01:37:02.999Z,13.8077
2023-05-01T01:38:04.016Z,12.8615
2023-05-01T01:39:05.091Z,13.7923
2023-05-01T01:40:06.171Z,13.2846
2023-05-01T01:41:07.174Z,14.3077
2023-05-01T01:42:08.210Z,14.7000
2023-05-01T01:43:09.183Z,14.3462
2023-05-01T01:44:10.274Z,16.1077
2023-05-01T01:45:11.273Z,17.1923
2023-05-01T01:46:12.382Z,17.0308
2023-05-01T01:47:13.356Z,15.9385
2023-05-01T01:48:14.378Z,16.2615
2023-05-01T01:49:15.382Z,14.1615
2023-05-01T01:50:16.537Z,14.0308
2023-05-01T01:51:17.496Z,14.5692
2023-05-01T01:52:18.551Z,14.5385
2023-05-01T01:53:19.590Z,15.5769
2023-05-01T01:54:20.591Z,14.2846
2023-05-01T01:55:21.611Z,13.4077
2023-05-01T01:56:22.658Z,14.2231
2023-05-01T01:57:23.704Z,14.9077
2023-05-01T01:58:24.747Z,14.6154
2023-05-01T01:59:25.742Z,15.6385
2023-05-01T02:00:26.801Z,14.9308
2023-05-01T02:01:27.824Z,15.6923
2023-05-01T02:02:28.980Z,17.2769
2023-05-01T02:03:29.971Z,16.7308
2023-05-01T02:04:30.949Z,14.9462
2023-05-01T02:05:31.939Z,13.6615
2023-05-01T02:06:33.040Z,12.2692
2023-05-01T02:07:34.021Z,14.2538
2023-05-01T02:08:35.120Z,13.0462
2023-05-01T02:09:36.136Z,13.6154
2023-05-01T02:10:37.155Z,14.3308
2023-05-01T02:11:38.194Z,14.4077
2023-05-01T02:12:39.212Z,16.0077
2023-05-01T02:13:40.297Z,13.8692
2023-05-01T02:14:41.345Z,13.6846
2023-05-01T02:15:42.347Z,14.8000
2023-05-01T02:16:43.393Z,17.7077
2023-05-01T02:17:44.407Z,17.4692
2023-05-01T02:18:45.473Z,18.0385
2023-05-01T02:19:46.517Z,20.2000
2023-05-01T02:20:47.542Z,25.8077
2023-05-01T02:21:48.533Z,19.2769
2023-05-01T02:22:49.573Z,18.9769
2023-05-01T02:23:50.623Z,19.2308
2023-05-01T02:24:51.673Z,19.2308
2023-05-01T02:25:52.655Z,24.8769
2023-05-01T02:26:53.693Z,22.0385
2023-05-01T02:27:54.723Z,21.0615
2023-05-01T02:28:55.791Z,21.8000
2023-05-01T02:29:57.150Z,18.5692
2023-05-01T02:30:57.853Z,17.8077
2023-05-01T02:31:59.056Z,18.1000
2023-05-01T02:32:59.958Z,20.3154
2023-05-01T02:34:00.955Z,20.4615
2023-05-01T02:35:02.001Z,19.0462
2023-05-01T02:36:02.977Z,16.6154
2023-05-01T02:37:04.010Z,18.4923
2023-05-01T02:38:05.036Z,20.2077
2023-05-01T02:39:06.136Z,20.4462
2023-05-01T02:40:07.165Z,19.9846
2023-05-01T02:41:08.175Z,20.5846
2023-05-01T02:42:09.233Z,17.0538
2023-05-01T02:43:10.255Z,16.5692
2023-05-01T02:44:11.281Z,18.6615
2023-05-01T02:45:12.314Z,21.6615
2023-05-01T02:46:13.341Z,22.1308
2023-05-01T02:47:14.407Z,22.0462
2023-05-01T02:48:15.381Z,20.9308
2023-05-01T02:49:16.479Z,19.5692
2023-05-01T02:50:17.516Z,20.7385
2023-05-01T02:51:18.504Z,18.4615
2023-05-01T02:52:19.543Z,18.1231
2023-05-01T02:53:20.598Z,19.3615
2023-05-01T02:54:21.633Z,19.8615
2023-05-01T02:55:22.679Z,19.0923
2023-05-01T02:56:23.679Z,17.8154
2023-05-01T02:57:24.743Z,18.0000
2023-05-01T02:58:25.776Z,17.3846
2023-05-01T02:59:26.826Z,17.3231
2023-05-01T03:00:27.869Z,17.2154
2023-05-01T03:01:28.905Z,15.5385
2023-05-01T03:02:29.878Z,15.1077
2023-05-01T03:03:30.942Z,13.9385
2023-05-01T03:04:32.038Z,16.7385
2023-05-01T03:05:33.024Z,15.8846
2023-05-01T03:06:34.073Z,15.2077
2023-05-01T03:07:35.102Z,15.7000
2023-05-01T03:08:36.103Z,16.2846
2023-05-01T03:09:37.158Z,14.9308
2023-05-01T03:10:38.217Z,17.3692
2023-05-01T03:11:39.203Z,19.7308
2023-05-01T03:12:40.257Z,20.4769
2023-05-01T03:13:41.256Z,16.4462
2023-05-01T03:14:42.333Z,17.3308
2023-05-01T03:15:43.338Z,18.0154
2023-05-01T03:16:44.433Z,17.0385
2023-05-01T03:17:45.408Z,17.1308
2023-05-01T03:18:46.441Z,17.9385
2023-05-01T03:19:47.457Z,17.4692
2023-05-01T03:20:48.529Z,16.8077
2023-05-01T03:21:49.519Z,16.1462
2023-05-01T03:22:50.568Z,17.7077
2023-05-01T03:23:51.593Z,18.1923
2023-05-01T03:24:52.668Z,19.5154
2023-05-01T03:25:53.698Z,17.3462
2023-05-01T03:26:54.737Z,20.0923
2023-05-01T03:27:55.713Z,24.6000
2023-05-01T03:28:56.762Z,19.8769
2023-05-01T03:29:58.060Z,18.4462
2023-05-01T03:30:58.876Z,19.0308
2023-05-01T03:31:59.940Z,16.8308
2023-05-01T03:33:00.975Z,16.7692
2023-05-01T03:34:01.918Z,16.7615
2023-05-01T03:35:03.113Z,16.0615
2023-05-01T03:36:04.044Z,17.3692
2023-05-01T03:37:05.061Z,17.6154
2023-05-01T03:38:06.110Z,15.6154
2023-05-01T03:39:07.136Z,19.0077
2023-05-01T03:40:08.184Z,17.7000
2023-05-01T03:41:09.211Z,18.0231
2023-05-01T03:42:10.210Z,18.2462
2023-05-01T03:43:11.273Z,19.8923
2023-05-01T03:44:12.251Z,19.6077
2023-05-01T03:45:13.339Z,18.4231
2023-05-01T03:46:14.421Z,18.8308
2023-05-01T03:47:15.388Z,17.5692
2023-05-01T03:48:16.397Z,17.2769
2023-05-01T03:49:17.469Z,17.9692
2023-05-01T03:50:18.508Z,17.7462
2023-05-01T03:51:19.533Z,19.0385
2023-05-01T03:52:20.508Z,19.6692
2023-05-01T03:53:21.570Z,18.8154
2023-05-01T03:54:22.613Z,18.0154
2023-05-01T03:55:23.675Z,17.7000
2023-05-01T03:56:24.653Z,19.6923
2023-05-01T03:57:25.753Z,20.4385
2023-05-01T03:58:26.721Z,20.8846
2023-05-01T03:59:27.827Z,21.5846
2023-05-01T04:00:28.812Z,21.7000
2023-05-01T04:01:29.873Z,19.9692
2023-05-01T04:02:30.973Z,20.9769
2023-05-01T04:03:31.974Z,20.0077
2023-05-01T04:04:33.049Z,18.0846
2023-05-01T04:05:33.992Z,18.6000
2023-05-01T04:06:35.081Z,19.3769
2023-05-01T04:07:36.056Z,19.4846
2023-05-01T04:08:37.054Z,21.1385
2023-05-01T04:09:38.123Z,20.0154
2023-05-01T04:10:39.163Z,21.3077
2023-05-01T04:11:40.215Z,19.1846
2023-05-01T04:12:41.194Z,18.0538
2023-05-01T04:13:42.322Z,18.1923
2023-05-01T04:14:43.280Z,17.7000
2023-05-01T04:15:44.393Z,19.7846
2023-05-01T04:16:45.359Z,18.0000
2023-05-01T04:17:46.402Z,19.7692
2023-05-01T04:18:47.412Z,18.2846
2023-05-01T04:19:48.464Z,17.6462
2023-05-01T04:20:49.510Z,17.9923
2023-05-01T04:21:50.553Z,16.9385
2023-05-01T04:22:51.518Z,18.0462
2023-05-01T04:23:52.570Z,18.4000
2023-05-01T04:24:53.604Z,17.5692
2023-05-01T04:25:54.729Z,19.0385
2023-05-01T04:26:55.710Z,20.6692
2023-05-01T04:27:56.752Z,21.3846
2023-05-01T04:28:57.757Z,20.1231
2023-05-01T04:29:59.040Z,18.9615
2023-05-01T04:30:59.840Z,19.9692
2023-05-01T04:32:00.984Z,20.1077
2023-05-01T04:33:02.008Z,20.2923
2023-05-01T04:34:02.944Z,19.1462
2023-05-01T04:35:04.319Z,19.4846
2023-05-01T04:36:05.003Z,20.2385
2023-05-01T04:37:06.032Z,18.8846
2023-05-01T04:38:07.089Z,17.9462
2023-05-01T04:39:08.070Z,20.6692
2023-05-01T04:40:11.262Z,20.9615
2023-05-01T04:41:10.148Z,20.7615
2023-05-01T04:42:11.233Z,20.4231
2023-05-01T04:43:12.230Z,19.9231
2023-05-01T04:44:13.258Z,18.8615
2023-05-01T04:45:14.273Z,17.7077
2023-05-01T04:46:15.331Z,19.0154
2023-05-01T04:47:16.367Z,18.1615
2023-05-01T04:48:17.439Z,18.8769
2023-05-01T04:49:18.389Z,19.7385
2023-05-01T04:50:19.455Z,19.8769
2023-05-01T04:51:20.457Z,19.7462
2023-05-01T04:52:21.582Z,19.9231
2023-05-01T04:53:22.602Z,20.4154
2023-05-01T04:54:23.588Z,20.6000
2023-05-01T04:55:24.599Z,19.4923
2023-05-01T04:56:25.662Z,22.1692
2023-05-01T04:57:26.687Z,21.7923
2023-05-01T04:58:27.710Z,22.5538
2023-05-01T04:59:28.752Z,20.5462
2023-05-01T05:00:29.768Z,21.6154
2023-05-01T05:01:30.903Z,22.0231
2023-05-01T05:02:32.128Z,22.8692
2023-05-01T05:03:33.032Z,21.0308
2023-05-01T05:04:34.030Z,20.7846
2023-05-01T05:05:35.008Z,21.4615
2023-05-01T05:06:36.075Z,21.4923
2023-05-01T05:07:37.066Z,22.4231
2023-05-01T05:08:38.130Z,21.0462
2023-05-01T05:09:39.155Z,22.9154
2023-05-01T05:10:40.154Z,22.6000
2023-05-01T05:11:41.217Z,20.8154
2023-05-01T05:12:42.242Z,20.8769
2023-05-01T05:13:43.349Z,21.0000
2023-05-01T05:14:44.350Z,23.0231
2023-05-01T05:15:45.374Z,21.4231
2023-05-01T05:16:46.401Z,23.8154
2023-05-01T05:17:47.463Z,22.6769
2023-05-01T05:18:48.478Z,22.2154
2023-05-01T05:19:49.532Z,23.0615
2023-05-01T05:20:50.523Z,23.6692
2023-05-01T05:21:51.536Z,23.2308
2023-05-01T05:22:52.550Z,23.9231
2023-05-01T05:23:53.655Z,21.4538
2023-05-01T05:24:54.667Z,22.6154
2023-05-01T05:25:55.713Z,22.0769
2023-05-01T05:26:56.730Z,22.6615
2023-05-01T05:27:57.750Z,23.3231
2023-05-01T05:28:58.750Z,22.0000
2023-05-01T05:29:59.858Z,23.0846
2023-05-01T05:31:00.875Z,22.5615
2023-05-01T05:32:01.992Z,24.2000
2023-05-01T05:33:03.025Z,25.6231
2023-05-01T05:34:03.953Z,26.4077
2023-05-01T05:35:04.951Z,27.0846
2023-05-01T05:36:06.053Z,25.9692
2023-05-01T05:37:07.075Z,25.9308
2023-05-01T05:38:08.092Z,24.7000
2023-05-01T05:39:09.116Z,23.6538
2023-05-01T05:40:10.177Z,22.6385
2023-05-01T05:41:11.210Z,21.0692
2023-05-01T05:42:12.248Z,21.9846
2023-05-01T05:43:13.237Z,23.0077
2023-05-01T05:44:14.280Z,23.4308
2023-05-01T05:45:15.282Z,23.3538
2023-05-01T05:46:16.360Z,23.0538
2023-05-01T05:47:17.395Z,23.0769
2023-05-01T05:48:18.405Z,23.2538
2023-05-01T05:49:19.432Z,22.0615
2023-05-01T05:50:20.476Z,22.4462
2023-05-01T05:51:21.523Z,23.6154
2023-05-01T05:52:22.577Z,22.1538
2023-05-01T05:53:25.706Z,20.3846
2023-05-01T05:54:24.637Z,23.1308
2023-05-01T05:55:25.605Z,21.2846
2023-05-01T05:56:26.699Z,21.2923
2023-05-01T05:57:27.697Z,22.0769
2023-05-01T05:58:28.743Z,21.6692
2023-05-01T05:59:29.757Z,23.2154
2023-05-01T06:00:30.892Z,23.3000
2023-05-01T06:01:31.867Z,23.8615
2023-05-01T06:02:33.035Z,23.8769
2023-05-01T06:03:34.100Z,25.1769
2023-05-01T06:04:34.938Z,26.9154
2023-05-01T06:05:35.976Z,25.1000
2023-05-01T06:06:37.124Z,23.9308
2023-05-01T06:07:38.054Z,23.4923
2023-05-01T06:08:39.136Z,21.5846
2023-05-01T06:09:40.178Z,23.3615
2023-05-01T06:10:41.259Z,21.2538
2023-05-01T06:11:42.302Z,23.8615
2023-05-01T06:12:50.005Z,22.6769
2023-05-01T06:13:44.391Z,22.0846
2023-05-01T06:14:45.370Z,21.7538
2023-05-01T06:15:46.466Z,22.0308
2023-05-01T06:16:47.439Z,21.0385
2023-05-01T06:17:48.612Z,20.7846
2023-05-01T06:18:49.538Z,21.1692
2023-05-01T06:19:50.521Z,19.7077
2023-05-01T06:20:51.533Z,21.7308
2023-05-01T06:21:52.598Z,22.3462
2023-05-01T06:22:53.664Z,22.3308
2023-05-01T06:23:54.725Z,22.0462
2023-05-01T06:24:55.697Z,23.1538
2023-05-01T06:25:56.735Z,22.3231
2023-05-01T06:26:58.681Z,21.4769
2023-05-01T06:27:58.854Z,22.2769
2023-05-01T06:28:59.920Z,20.3462
2023-05-01T06:30:00.941Z,19.4769
2023-05-01T06:31:01.815Z,19.8692
2023-05-01T06:32:02.899Z,18.8231
2023-05-01T06:33:03.913Z,17.9769
2023-05-01T06:34:04.951Z,18.4308
2023-05-01T06:35:05.921Z,17.4846
2023-05-01T06:36:06.973Z,18.1923
2023-05-01T06:37:08.024Z,19.1538
2023-05-01T06:38:09.092Z,18.2231
2023-05-01T06:39:10.117Z,19.5538
2023-05-01T06:40:11.135Z,19.4000
2023-05-01T06:41:12.160Z,18.3846
2023-05-01T06:42:13.174Z,17.7923
2023-05-01T06:43:14.248Z,17.3077
2023-05-01T06:44:15.291Z,16.8154
2023-05-01T06:45:16.312Z,16.3538
2023-05-01T06:46:17.388Z,16.4615
2023-05-01T06:47:18.320Z,17.3385
2023-05-01T06:48:19.370Z,16.4692
2023-05-01T06:49:20.411Z,15.4615
2023-05-01T06:50:21.491Z,15.2615
2023-05-01T06:51:22.491Z,13.6308
2023-05-01T06:52:23.537Z,14.0385
2023-05-01T06:53:24.558Z,14.6615
2023-05-01T06:54:25.704Z,13.8000
2023-05-01T06:55:26.671Z,13.9538
2023-05-01T06:56:27.669Z,14.0769
2023-05-01T06:57:28.692Z,13.9923
2023-05-01T06:58:29.753Z,13.2154
2023-05-01T06:59:30.792Z,15.1308
2023-05-01T07:00:31.837Z,13.5692
2023-05-01T07:01:35.322Z,14.3308
2023-05-01T07:02:33.943Z,14.2923
2023-05-01T07:03:35.013Z,13.7231
2023-05-01T07:04:35.976Z,14.0308
2023-05-01T07:05:37.008Z,12.5692
2023-05-01T07:06:38.154Z,13.4077
2023-05-01T07:07:47.280Z,14.0538
2023-05-01T07:08:40.082Z,13.0538
2023-05-01T07:09:41.166Z,12.7000
2023-05-01T07:10:42.496Z,12.6077
2023-05-01T07:11:43.234Z,12.6462
2023-05-01T07:12:44.198Z,14.0077
2023-05-01T07:13:45.260Z,14.5692
2023-05-01T07:14:46.338Z,12.4231
2023-05-01T07:15:47.352Z,12.1692
2023-05-01T07:16:48.490Z,13.2000
2023-05-01T07:17:49.449Z,13.0385
2023-05-01T07:18:50.466Z,13.4615
2023-05-01T07:19:51.495Z,13.7615
2023-05-01T07:20:52.540Z,13.2308
2023-05-01T07:21:53.553Z,13.4308
2023-05-01T07:22:54.587Z,12.7923
2023-05-01T07:23:55.784Z,12.7077
2023-05-01T07:24:56.720Z,12.4231
2023-05-01T07:25:57.713Z,11.9077
2023-05-01T07:26:58.722Z,11.4154
2023-05-01T07:27:59.757Z,12.0692
2023-05-01T07:29:00.796Z,12.7154
2023-05-01T07:30:01.870Z,12.4154
2023-05-01T07:31:02.937Z,13.3000
2023-05-01T07:32:04.088Z,13.2769
2023-05-01T07:33:04.963Z,14.1077
2023-05-01T07:34:05.934Z,14.6615
2023-05-01T07:35:07.009Z,14.3615
2023-05-01T07:36:08.139Z,12.6923
2023-05-01T07:37:09.290Z,13.8000
2023-05-01T07:38:10.076Z,13.5154
2023-05-01T07:39:11.142Z,13.0538
2023-05-01T07:40:12.221Z,13.9000
2023-05-01T07:41:13.213Z,13.3231
2023-05-01T07:42:14.272Z,13.2154
2023-05-01T07:43:15.262Z,13.1462
2023-05-01T07:44:16.304Z,13.2077
2023-05-01T07:45:17.316Z,11.8769
2023-05-01T07:46:18.403Z,13.0385
2023-05-01T07:47:19.468Z,12.9846
2023-05-01T07:48:20.437Z,13.1231
2023-05-01T07:49:21.578Z,13.2692
2023-05-01T07:50:22.483Z,12.8462
2023-05-01T07:51:23.570Z,12.8385
2023-05-01T07:52:24.588Z,12.8769
2023-05-01T07:53:25.619Z,12.0615
2023-05-01T07:54:26.634Z,13.0308
2023-05-01T07:55:27.699Z,13.1846
2023-05-01T07:56:28.738Z,12.7923
2023-05-01T07:57:29.771Z,13.9077
2023-05-01T07:58:30.758Z,14.0154
2023-05-01T07:59:31.821Z,13.8538
2023-05-01T08:00:32.815Z,13.7308
2023-05-01T08:01:33.932Z,12.7692
2023-05-01T08:02:34.978Z,13.1769
2023-05-01T08:03:36.003Z,13.5462
2023-05-01T08:04:37.023Z,13.9077
2023-05-01T08:05:38.148Z,14.0769
2023-05-01T08:06:39.189Z,13.5077
2023-05-01T08:07:40.127Z,12.4615
2023-05-01T08:08:41.149Z,13.0615
2023-05-01T08:09:42.333Z,13.0615
2023-05-01T08:10:43.173Z,11.6538
2023-05-01T08:11:44.209Z,11.9846
2023-05-01T08:12:45.297Z,12.0538
2023-05-01T08:13:46.367Z,12.3385
2023-05-01T08:14:47.309Z,12.9308
2023-05-01T08:15:48.493Z,12.2385
2023-05-01T08:16:49.520Z,11.3231
2023-05-01T08:17:50.678Z,12.5000
2023-05-01T08:18:51.631Z,11.7538
2023-05-01T08:19:52.654Z,10.5923
2023-05-01T08:20:53.639Z,11.1308
2023-05-01T08:21:54.657Z,10.7769
2023-05-01T08:22:55.734Z,11.3000
2023-05-01T08:23:56.773Z,11.1077
2023-05-01T08:24:57.831Z,11.2462
2023-05-01T08:25:58.841Z,11.6538
2023-05-01T08:26:59.876Z,11.2231
2023-05-01T08:28:00.935Z,11.4615
2023-05-01T08:29:02.025Z,11.3538
2023-05-01T08:30:03.006Z,11.2308
2023-05-01T08:31:04.067Z,10.7846
2023-05-01T08:32:04.951Z,10.7846
2023-05-01T08:33:06.183Z,11.1692
2023-05-01T08:34:07.241Z,11.4846
2023-05-01T08:35:08.157Z,11.5769
2023-05-01T08:36:09.199Z,10.6154
2023-05-01T08:37:10.316Z,11.2000
2023-05-01T08:38:11.385Z,11.0846
2023-05-01T08:39:12.436Z,11.6538
2023-05-01T08:40:13.401Z,10.5615
2023-05-01T08:41:14.425Z,10.2769
2023-05-01T08:42:15.460Z,10.2846
2023-05-01T08:43:16.512Z,9.5846
2023-05-01T08:44:17.582Z,11.2692
2023-05-01T08:45:18.499Z,10.1308
2023-05-01T08:46:19.592Z,9.6769
2023-05-01T08:47:20.672Z,9.6692
2023-05-01T08:48:21.674Z,10.0308
2023-05-01T08:49:22.673Z,9.3462
2023-05-01T08:50:23.721Z,9.1923
2023-05-01T08:51:24.714Z,9.4154
2023-05-01T08:52:25.751Z,8.8000
2023-05-01T08:53:26.826Z,8.2385
2023-05-01T08:54:27.870Z,8.7538
2023-05-01T08:55:28.909Z,8.7308
2023-05-01T08:56:29.986Z,8.2846
2023-05-01T08:57:30.915Z,7.5385
2023-05-01T08:58:32.125Z,8.3923
2023-05-01T08:59:33.038Z,8.7769
2023-05-01T09:00:34.041Z,9.1769
2023-05-01T09:01:35.170Z,8.7154
2023-05-01T09:02:36.219Z,8.5308
2023-05-01T09:03:37.260Z,7.8846
2023-05-01T09:04:38.271Z,8.8615
2023-05-01T09:05:39.312Z,7.9538
2023-05-01T09:06:40.388Z,8.3923
2023-05-01T09:07:41.346Z,8.7923
2023-05-01T09:08:42.446Z,8.4692
2023-05-01T09:09:43.513Z,9.1769
2023-05-01T09:10:44.484Z,9.9846
2023-05-01T09:11:45.572Z,8.6846
2023-05-01T09:12:46.550Z,9.7231
2023-05-01T09:13:47.610Z,9.2154
2023-05-01T09:14:48.747Z,10.6615
2023-05-01T09:15:49.676Z,9.6308
2023-05-01T09:16:50.813Z,8.7846
2023-05-01T09:17:51.758Z,9.2385
2023-05-01T09:18:52.768Z,9.3000
2023-05-01T09:19:53.834Z,8.1231
2023-05-01T09:20:54.809Z,8.3769
2023-05-01T09:21:55.867Z,8.1769
2023-05-01T09:22:56.878Z,8.7154
2023-05-01T09:23:57.930Z,8.9462
2023-05-01T09:24:59.028Z,8.5923
2023-05-01T09:26:00.036Z,8.2231
2023-05-01T09:27:01.107Z,8.4846
2023-05-01T09:28:02.053Z,8.0462
2023-05-01T09:29:03.203Z,8.7615
2023-05-01T09:30:04.187Z,8.8308
2023-05-01T09:31:05.150Z,9.3000
2023-05-01T09:32:06.206Z,8.2231
2023-05-01T09:33:07.285Z,8.5615
2023-05-01T09:34:08.299Z,7.5462
2023-05-01T09:35:09.356Z,7.9077
2023-05-01T09:36:10.290Z,7.8692
2023-05-01T09:37:11.385Z,7.4538
2023-05-01T09:38:12.372Z,6.8846
2023-05-01T09:39:13.497Z,6.1154
2023-05-01T09:40:14.568Z,6.6154
2023-05-01T09:41:15.491Z,7.2077
2023-05-01T09:42:16.568Z,7.0923
2023-05-01T09:43:17.556Z,7.0846
2023-05-01T09:44:18.629Z,7.1923
2023-05-01T09:45:19.727Z,6.9231
2023-05-01T09:46:20.708Z,7.1846
2023-05-01T09:47:21.772Z,6.8538
2023-05-01T09:48:22.713Z,6.2769
2023-05-01T09:49:23.784Z,6.8000
2023-05-01T09:50:24.856Z,6.2077
2023-05-01T09:51:25.812Z,6.1769
2023-05-01T09:52:26.815Z,6.3154
2023-05-01T09:53:27.987Z,6.8923
2023-05-01T09:54:28.934Z,6.5231
2023-05-01T09:55:30.032Z,7.5769
2023-05-01T09:56:31.067Z,7.1846
2023-05-01T09:57:32.032Z,6.7077
2023-05-01T09:58:33.056Z,6.4538
2023-05-01T09:59:34.150Z,7.0462
2023-05-01T10:00:35.174Z,6.4308
2023-05-01T10:01:36.248Z,6.7769
2023-05-01T10:02:37.244Z,6.0154
2023-05-01T10:03:38.626Z,5.8000
2023-05-01T10:04:39.295Z,6.6923
2023-05-01T10:05:40.374Z,6.5615
2023-05-01T10:06:41.474Z,6.7462
2023-05-01T10:07:42.505Z,6.4308
2023-05-01T10:08:43.417Z,6.3154
2023-05-01T10:09:44.543Z,6.0692
2023-05-01T10:10:45.564Z,5.9462
2023-05-01T10:11:46.534Z,6.2538
2023-05-01T10:12:47.627Z,5.8846
2023-05-01T10:13:48.602Z,5.8154
2023-05-01T10:14:49.721Z,5.6462
2023-05-01T10:15:50.836Z,6.0769
2023-05-01T10:16:51.794Z,5.6846
2023-05-01T10:17:52.818Z,5.7615
2023-05-01T10:18:53.775Z,5.8769
2023-05-01T10:19:55.227Z,6.1308
2023-05-01T10:20:55.909Z,5.7000
2023-05-01T10:21:56.943Z,5.9769
2023-05-01T10:22:57.984Z,5.5385
2023-05-01T10:23:59.011Z,5.6000
2023-05-01T10:25:00.047Z,5.5077
2023-05-01T10:26:02.508Z,5.5154
2023-05-01T10:27:02.108Z,5.2462
2023-05-01T10:28:03.071Z,5.2231
2023-05-01T10:29:04.122Z,4.6077
2023-05-01T10:30:05.300Z,4.3538
2023-05-01T10:31:06.261Z,4.6769
2023-05-01T10:32:07.219Z,4.3308
2023-05-01T10:33:08.368Z,4.5154
2023-05-01T10:34:09.287Z,4.4385
2023-05-01T10:35:10.390Z,4.3077
2023-05-01T10:36:11.432Z,4.1923
2023-05-01T10:37:12.455Z,4.5154
2023-05-01T10:38:13.426Z,4.1231
2023-05-01T10:39:14.508Z,5.5769
2023-05-01T10:40:15.590Z,4.2308
2023-05-01T10:41:16.588Z,4.3769
2023-05-01T10:42:17.634Z,3.9538
2023-05-01T10:43:18.653Z,3.9308
2023-05-01T10:44:19.717Z,3.4846
2023-05-01T10:45:20.752Z,3.5462
2023-05-01T10:46:21.914Z,3.8462
2023-05-01T10:47:22.808Z,3.7769
2023-05-01T10:48:23.805Z,3.5923
2023-05-01T10:49:24.878Z,3.6692
2023-05-01T10:50:25.952Z,4.3231
2023-05-01T10:51:28.271Z,4.1385
2023-05-01T10:52:27.969Z,3.6923
2023-05-01T10:53:28.986Z,4.0538
2023-05-01T10:54:29.991Z,3.9462
2023-05-01T10:55:31.185Z,3.9538
2023-05-01T10:56:32.164Z,3.9077
2023-05-01T10:57:33.149Z,4.3846
2023-05-01T10:58:34.162Z,3.8923
2023-05-01T10:59:35.275Z,4.5923
2023-05-01T11:00:36.277Z,5.2308
2023-05-01T11:01:37.389Z,4.5692
2023-05-01T11:02:38.336Z,4.6385
2023-05-01T11:03:39.360Z,4.8308
2023-05-01T11:04:40.336Z,4.5462
2023-05-01T11:05:41.582Z,4.7769
2023-05-01T11:06:42.642Z,4.7154
2023-05-01T11:07:43.478Z,4.4692
2023-05-01T11:08:45.544Z,4.4923
2023-05-01T11:09:45.506Z,4.1385
2023-05-01T11:10:46.616Z,4.3308
2023-05-01T11:11:47.674Z,3.8385
2023-05-01T11:12:48.679Z,3.9462
2023-05-01T11:13:49.675Z,4.5615
2023-05-01T11:14:50.697Z,4.2846
2023-05-01T11:15:51.844Z,4.7692
2023-05-01T11:16:52.865Z,3.7385
2023-05-01T11:17:53.911Z,4.0615
2023-05-01T11:18:54.855Z,4.2538
2023-05-01T11:19:55.886Z,3.9385
2023-05-01T11:20:56.944Z,3.7923
2023-05-01T11:21:57.973Z,5.1000
2023-05-01T11:22:59.026Z,4.2846
2023-05-01T11:24:00.023Z,3.6846
2023-05-01T11:25:01.056Z,3.6231
2023-05-01T11:26:02.092Z,3.5462
2023-05-01T11:27:03.187Z,3.1538
2023-05-01T11:28:04.178Z,4.0846
2023-05-01T11:29:05.270Z,3.7000
2023-05-01T11:30:06.226Z,3.8846
2023-05-01T11:31:07.364Z,4.0385
2023-05-01T11:32:08.483Z,4.2769
2023-05-01T11:33:10.964Z,3.6923
2023-05-01T11:34:10.361Z,4.1154
2023-05-01T11:35:11.411Z,3.8385
2023-05-01T11:36:12.457Z,4.0154
2023-05-01T11:37:13.504Z,4.5308
2023-05-01T11:38:14.465Z,5.5000
2023-05-01T11:39:15.557Z,3.8231
2023-05-01T11:40:16.571Z,4.4846
2023-05-01T11:41:19.254Z,4.3538
2023-05-01T11:42:18.721Z,5.1385
2023-05-01T11:43:19.755Z,4.2308
2023-05-01T11:44:20.694Z,3.4769
2023-05-01T11:45:21.772Z,4.1154
2023-05-01T11:46:22.846Z,3.5923
2023-05-01T11:47:23.898Z,3.9077
2023-05-01T11:48:24.843Z,3.7846
2023-05-01T11:49:25.876Z,4.0538
2023-05-01T11:50:26.895Z,3.9000
2023-05-01T11:51:28.048Z,3.1231
2023-05-01T11:52:29.026Z,3.2769
2023-05-01T11:53:30.049Z,3.5000
2023-05-01T11:54:31.039Z,3.3846
2023-05-01T11:55:32.080Z,3.7462
2023-05-01T11:56:33.162Z,3.3462
2023-05-01T11:57:34.188Z,2.9692
2023-05-01T11:58:35.227Z,2.8308
2023-05-01T11:59:36.190Z,3.4308
2023-05-01T12:00:37.216Z,3.4231
2023-05-01T12:01:38.296Z,3.0154
2023-05-01T12:02:39.428Z,3.0385
2023-05-01T12:03:40.420Z,3.3923
2023-05-01T12:04:41.384Z,3.3462
2023-05-01T12:05:42.419Z,2.9154
2023-05-01T12:06:43.541Z,2.9231
2023-05-01T12:07:44.510Z,3.6308
2023-05-01T12:08:45.513Z,3.2538
2023-05-01T12:09:46.568Z,3.2308
2023-05-01T12:10:47.563Z,3.3308
2023-05-01T12:11:50.537Z,3.8077
2023-05-01T12:12:49.724Z,3.5231
2023-05-01T12:13:50.637Z,3.3462
2023-05-01T12:14:51.669Z,3.8231
2023-05-01T12:15:52.755Z,4.2615
2023-05-01T12:16:53.871Z,3.4538
2023-05-01T12:17:54.856Z,3.3000
2023-05-01T12:18:55.824Z,3.9846
2023-05-01T12:19:56.915Z,3.3231
2023-05-01T12:20:57.970Z,3.3923
2023-05-01T12:21:58.935Z,3.4308
2023-05-01T12:22:59.980Z,3.2308
2023-05-01T12:24:00.989Z,3.7769
2023-05-01T12:25:02.003Z,4.1000
2023-05-01T12:26:03.100Z,3.9615
2023-05-01T12:27:04.099Z,3.5000